createdAt,value
2019-03-19T00:01:29.326Z,8.30
2019-03-19T00:04:02.661Z,9.43
2019-03-19T00:06:36.006Z,8.40
2019-03-19T00:09:09.433Z,8.70
2019-03-19T00:11:42.866Z,9.33
2019-03-19T00:14:16.187Z,9.73
2019-03-19T00:16:49.540Z,9.80
2019-03-19T00:19:22.970Z,9.60
2019-03-19T00:21:56.341Z,10.07
2019-03-19T00:24:29.693Z,10.07
2019-03-19T00:27:03.183Z,10.27
2019-03-19T00:29:36.550Z,10.70
2019-03-19T00:32:10.011Z,10.33
2019-03-19T00:34:43.359Z,9.83
2019-03-19T00:37:16.739Z,9.93
2019-03-19T00:39:50.076Z,9.53
2019-03-19T00:42:23.500Z,9.70
2019-03-19T00:44:56.933Z,8.43
2019-03-19T00:47:30.305Z,9.53
2019-03-19T00:50:06.185Z,9.63
2019-03-19T00:52:39.541Z,8.63
2019-03-19T00:55:12.992Z,9.97
2019-03-19T00:57:46.322Z,10.03
2019-03-19T01:00:20.954Z,9.50
2019-03-19T01:02:54.332Z,9.40
2019-03-19T01:05:27.746Z,9.17
2019-03-19T01:08:01.258Z,9.40
2019-03-19T01:10:34.622Z,8.53
2019-03-19T01:13:08.153Z,8.83
2019-03-19T01:15:41.613Z,9.23
2019-03-19T01:18:14.978Z,8.73
2019-03-19T01:20:48.381Z,8.80
2019-03-19T01:23:21.823Z,8.43
2019-03-19T01:25:55.971Z,8.93
2019-03-19T01:28:29.524Z,10.63
2019-03-19T01:31:02.894Z,10.33
2019-03-19T01:33:36.243Z,10.30
2019-03-19T01:36:09.648Z,9.80
2019-03-19T01:38:43.013Z,9.93
2019-03-19T01:41:16.351Z,9.27
2019-03-19T01:43:49.816Z,8.50
2019-03-19T01:46:23.236Z,9.37
2019-03-19T01:48:56.681Z,9.60
2019-03-19T01:51:30.031Z,9.23
2019-03-19T01:54:03.480Z,8.60
2019-03-19T01:56:36.822Z,8.47
2019-03-19T01:59:10.193Z,8.27
2019-03-19T02:01:43.540Z,9.00
2019-03-19T02:04:16.895Z,8.93
2019-03-19T02:06:50.240Z,10.17
2019-03-19T02:09:23.765Z,9.57
2019-03-19T02:11:57.208Z,9.30
2019-03-19T02:14:30.687Z,8.70
2019-03-19T02:17:04.155Z,7.93
2019-03-19T02:19:37.614Z,8.47
2019-03-19T02:22:11.036Z,8.23
2019-03-19T02:24:44.452Z,8.10
2019-03-19T02:27:17.933Z,9.07
2019-03-19T02:29:51.661Z,8.90
2019-03-19T02:32:25.118Z,8.37
2019-03-19T02:34:58.469Z,8.23
2019-03-19T02:37:31.839Z,8.23
2019-03-19T02:40:11.442Z,8.67
2019-03-19T02:42:44.772Z,8.50
2019-03-19T02:45:18.227Z,8.17
2019-03-19T02:47:51.656Z,8.17
2019-03-19T02:50:25.068Z,8.40
2019-03-19T02:52:58.421Z,8.23
2019-03-19T02:55:31.832Z,8.00
2019-03-19T02:58:05.336Z,7.93
2019-03-19T03:00:38.694Z,8.90
2019-03-19T03:03:12.217Z,8.43
2019-03-19T03:05:45.618Z,9.10
2019-03-19T03:08:19.082Z,8.83
2019-03-19T03:10:52.525Z,9.07
2019-03-19T03:13:25.952Z,9.20
2019-03-19T03:15:59.306Z,9.83
2019-03-19T03:18:32.693Z,9.10
2019-03-19T03:21:06.208Z,8.87
2019-03-19T03:23:39.585Z,9.23
2019-03-19T03:26:12.938Z,9.77
2019-03-19T03:28:46.366Z,8.70
2019-03-19T03:31:19.769Z,7.93
2019-03-19T03:33:53.163Z,9.03
2019-03-19T03:36:26.512Z,8.40
2019-03-19T03:38:59.886Z,9.93
2019-03-19T03:41:33.350Z,10.00
2019-03-19T03:44:06.777Z,8.83
2019-03-19T03:46:40.246Z,9.13
2019-03-19T03:49:13.679Z,8.00
2019-03-19T03:51:47.098Z,7.87
2019-03-19T03:54:20.526Z,9.27
2019-03-19T03:57:01.927Z,8.90
2019-03-19T03:59:29.137Z,8.87
2019-03-19T04:02:02.623Z,8.07
2019-03-19T04:04:36.111Z,8.03
2019-03-19T04:07:09.466Z,8.90
2019-03-19T04:09:42.849Z,9.17
2019-03-19T04:12:16.241Z,8.57
2019-03-19T04:14:49.642Z,7.67
2019-03-19T04:17:23.066Z,9.13
2019-03-19T04:19:56.455Z,8.53
2019-03-19T04:22:29.870Z,8.60
2019-03-19T04:25:03.685Z,9.47
2019-03-19T04:27:40.123Z,9.00
2019-03-19T04:30:19.008Z,8.23
2019-03-19T04:32:52.403Z,8.63
2019-03-19T04:35:25.837Z,7.73
2019-03-19T04:37:59.215Z,8.20
2019-03-19T04:40:32.587Z,8.07
2019-03-19T04:43:05.934Z,8.07
2019-03-19T04:45:39.296Z,8.20
2019-03-19T04:48:12.703Z,8.57
2019-03-19T04:50:46.072Z,8.50
2019-03-19T04:53:19.418Z,7.80
2019-03-19T04:55:52.788Z,8.30
2019-03-19T04:58:26.129Z,8.17
2019-03-19T05:00:59.524Z,8.77
2019-03-19T05:03:32.946Z,8.87
2019-03-19T05:06:06.376Z,8.57
2019-03-19T05:08:39.916Z,8.53
2019-03-19T05:11:13.292Z,8.23
2019-03-19T05:13:46.661Z,7.37
2019-03-19T05:16:20.024Z,8.43
2019-03-19T05:18:53.920Z,8.87
2019-03-19T05:21:27.283Z,8.07
2019-03-19T05:24:00.655Z,6.90
2019-03-19T05:26:34.016Z,7.57
2019-03-19T05:29:07.437Z,6.97
2019-03-19T05:31:40.854Z,6.53
2019-03-19T05:34:14.216Z,8.40
2019-03-19T05:36:47.595Z,11.07
2019-03-19T05:39:21.041Z,10.53
2019-03-19T05:41:54.503Z,9.37
2019-03-19T05:44:27.906Z,9.10
2019-03-19T05:47:01.302Z,8.60
2019-03-19T05:49:34.651Z,8.43
2019-03-19T05:52:08.060Z,9.50
2019-03-19T05:54:41.432Z,10.00
2019-03-19T05:57:14.842Z,10.70
2019-03-19T05:59:48.289Z,11.10
2019-03-19T06:02:21.684Z,10.57
2019-03-19T06:04:55.144Z,9.97
2019-03-19T06:07:28.525Z,9.87
2019-03-19T06:10:01.875Z,9.43
2019-03-19T06:12:35.469Z,9.60
2019-03-19T06:15:11.639Z,10.00
2019-03-19T06:17:44.992Z,9.07
2019-03-19T06:20:19.476Z,9.47
2019-03-19T06:22:52.894Z,9.50
2019-03-19T06:25:26.251Z,9.87
2019-03-19T06:28:00.897Z,10.37
2019-03-19T06:30:34.504Z,11.33
2019-03-19T06:33:07.992Z,10.53
2019-03-19T06:35:41.453Z,10.43
2019-03-19T06:38:14.781Z,9.57
2019-03-19T06:40:48.233Z,11.93
2019-03-19T06:43:21.564Z,11.70
2019-03-19T06:45:54.947Z,12.33
2019-03-19T06:48:28.292Z,12.33
2019-03-19T06:51:01.676Z,12.20
2019-03-19T06:53:35.033Z,13.07
2019-03-19T06:56:08.566Z,12.57
2019-03-19T06:58:42.028Z,12.33
2019-03-19T07:01:17.353Z,13.33
2019-03-19T07:03:50.544Z,12.73
2019-03-19T07:06:24.960Z,12.93
2019-03-19T07:08:58.409Z,12.73
2019-03-19T07:11:31.782Z,12.17
2019-03-19T07:14:05.213Z,11.77
2019-03-19T07:16:38.628Z,10.87
2019-03-19T07:19:11.984Z,11.10
2019-03-19T07:21:45.425Z,8.57
2019-03-19T07:24:18.766Z,8.10
2019-03-19T07:26:52.201Z,7.70
2019-03-19T07:29:25.565Z,8.87
2019-03-19T07:31:59.023Z,9.03
2019-03-19T07:34:32.455Z,8.80
2019-03-19T07:37:05.889Z,7.60
2019-03-19T07:39:39.312Z,7.30
2019-03-19T07:42:12.686Z,7.83
2019-03-19T07:44:46.088Z,8.30
2019-03-19T07:47:19.460Z,8.30
2019-03-19T07:49:52.806Z,8.70
2019-03-19T07:52:26.185Z,8.80
2019-03-19T07:54:59.624Z,8.77
2019-03-19T07:57:33.070Z,9.57
2019-03-19T08:00:09.627Z,9.57
2019-03-19T08:02:42.983Z,9.33
2019-03-19T08:05:16.401Z,9.87
2019-03-19T08:07:49.757Z,9.17
2019-03-19T08:10:23.172Z,10.60
2019-03-19T08:12:56.672Z,10.03
2019-03-19T08:15:30.072Z,9.93
2019-03-19T08:18:03.504Z,9.50
2019-03-19T08:20:36.968Z,10.10
2019-03-19T08:23:10.351Z,10.67
2019-03-19T08:25:43.719Z,10.60
2019-03-19T08:28:17.169Z,9.63
2019-03-19T08:30:50.510Z,10.30
2019-03-19T08:33:23.910Z,9.30
2019-03-19T08:35:57.251Z,9.47
2019-03-19T08:38:30.591Z,8.87
2019-03-19T08:41:03.950Z,8.80
2019-03-19T08:43:37.385Z,10.23
2019-03-19T08:46:10.887Z,9.70
2019-03-19T08:48:44.321Z,9.63
2019-03-19T08:51:17.744Z,10.07
2019-03-19T08:53:51.196Z,8.90
2019-03-19T08:56:24.518Z,9.33
2019-03-19T08:59:05.792Z,7.70
2019-03-19T09:01:34.208Z,7.20
2019-03-19T09:04:07.657Z,7.47
2019-03-19T09:06:41.380Z,6.67
2019-03-19T09:09:14.773Z,7.00
2019-03-19T09:11:48.174Z,6.97
2019-03-19T09:14:21.638Z,5.80
2019-03-19T09:16:55.069Z,4.97
2019-03-19T09:19:28.494Z,6.53
2019-03-19T09:22:01.932Z,6.30
2019-03-19T09:24:35.361Z,5.23
2019-03-19T09:27:08.794Z,5.17
2019-03-19T09:29:42.151Z,5.10
2019-03-19T09:32:15.566Z,3.67
2019-03-19T09:34:48.936Z,4.53
2019-03-19T09:37:22.367Z,3.20
2019-03-19T09:39:55.786Z,4.80
2019-03-19T09:42:29.290Z,4.23
2019-03-19T09:45:02.988Z,3.87
2019-03-19T09:47:38.484Z,2.70
2019-03-19T09:50:19.880Z,3.80
2019-03-19T09:52:53.339Z,3.00
2019-03-19T09:55:26.866Z,3.30
2019-03-19T09:58:00.315Z,3.77
2019-03-19T10:00:33.734Z,2.60
2019-03-19T10:03:07.170Z,2.53
2019-03-19T10:05:40.545Z,2.57
2019-03-19T10:08:13.999Z,2.20
2019-03-19T10:10:47.425Z,3.33
2019-03-19T10:13:20.876Z,3.40
2019-03-19T10:15:54.292Z,3.13
2019-03-19T10:18:27.828Z,3.17
2019-03-19T10:21:01.265Z,2.60
2019-03-19T10:23:34.635Z,2.67
2019-03-19T10:26:07.986Z,3.27
2019-03-19T10:28:41.379Z,3.20
2019-03-19T10:31:14.789Z,3.00
2019-03-19T10:33:48.799Z,2.60
2019-03-19T10:36:22.194Z,2.80
2019-03-19T10:38:55.672Z,2.43
2019-03-19T10:41:29.171Z,2.37
2019-03-19T10:44:02.534Z,2.40
2019-03-19T10:46:35.962Z,2.80
2019-03-19T10:49:09.419Z,2.23
2019-03-19T10:51:42.841Z,2.40
2019-03-19T10:54:19.276Z,2.10
2019-03-19T10:56:52.642Z,2.27
2019-03-19T10:59:26.127Z,2.47
2019-03-19T11:01:59.648Z,2.10
2019-03-19T11:04:33.073Z,1.90
2019-03-19T11:07:06.412Z,2.00
2019-03-19T11:09:39.848Z,1.73
2019-03-19T11:12:13.176Z,1.93
2019-03-19T11:14:46.615Z,2.50
2019-03-19T11:17:19.964Z,1.90
2019-03-19T11:19:53.406Z,2.10
2019-03-19T11:22:26.817Z,2.00
2019-03-19T11:25:02.489Z,1.90
2019-03-19T11:27:36.038Z,1.40
2019-03-19T11:30:15.254Z,1.97
2019-03-19T11:32:48.731Z,1.90
2019-03-19T11:35:22.352Z,2.20
2019-03-19T11:37:56.703Z,2.23
2019-03-19T11:40:30.175Z,2.00
2019-03-19T11:43:03.712Z,1.87
2019-03-19T11:45:37.214Z,2.33
2019-03-19T11:48:10.728Z,2.10
2019-03-19T11:50:44.152Z,1.93
2019-03-19T11:53:17.578Z,1.53
2019-03-19T11:55:51.040Z,1.73
2019-03-19T11:58:24.381Z,2.03
2019-03-19T12:00:59.444Z,2.00
2019-03-19T12:03:32.802Z,1.97
2019-03-19T12:06:06.170Z,2.43
2019-03-19T12:08:39.509Z,2.30
2019-03-19T12:11:12.934Z,1.80
2019-03-19T12:13:46.285Z,2.50
2019-03-19T12:16:19.720Z,2.10
2019-03-19T12:18:53.111Z,2.03
2019-03-19T12:21:26.551Z,1.90
2019-03-19T12:23:59.875Z,2.20
2019-03-19T12:26:33.316Z,2.33
2019-03-19T12:29:06.676Z,2.10
2019-03-19T12:31:40.259Z,2.57
2019-03-19T12:34:13.672Z,2.40
2019-03-19T12:36:47.043Z,2.10
2019-03-19T12:39:20.435Z,1.97
2019-03-19T12:41:53.949Z,2.47
2019-03-19T12:44:30.089Z,2.50
2019-03-19T12:47:03.511Z,2.30
2019-03-19T12:49:36.981Z,2.43
2019-03-19T12:52:10.875Z,2.37
2019-03-19T12:54:44.316Z,2.20
2019-03-19T12:57:19.232Z,2.30
2019-03-19T12:59:52.979Z,2.30
2019-03-19T13:02:26.312Z,1.97
2019-03-19T13:04:59.766Z,2.17
2019-03-19T13:07:33.173Z,2.43
2019-03-19T13:10:09.708Z,2.33
2019-03-19T13:12:43.122Z,2.10
2019-03-19T13:15:19.224Z,2.17
2019-03-19T13:17:52.604Z,2.40
2019-03-19T13:20:26.034Z,2.50
2019-03-19T13:22:59.454Z,2.43
2019-03-19T13:25:32.941Z,2.03
2019-03-19T13:28:06.833Z,1.70
2019-03-19T13:30:45.040Z,2.10
2019-03-19T13:33:15.342Z,2.37
2019-03-19T13:35:48.696Z,1.80
2019-03-19T13:38:22.129Z,1.73
2019-03-19T13:40:55.627Z,1.97
2019-03-19T13:43:28.979Z,2.00
2019-03-19T13:46:02.363Z,1.80
2019-03-19T13:48:35.794Z,2.03
2019-03-19T13:51:09.703Z,1.80
2019-03-19T13:53:43.050Z,2.30
2019-03-19T13:56:16.489Z,1.97
2019-03-19T13:58:49.918Z,2.00
2019-03-19T14:01:23.261Z,1.90
2019-03-19T14:03:56.590Z,2.00
2019-03-19T14:06:29.952Z,2.33
2019-03-19T14:09:04.148Z,2.47
2019-03-19T14:11:37.602Z,1.67
2019-03-19T14:14:11.219Z,2.60
2019-03-19T14:16:44.675Z,2.00
2019-03-19T14:19:18.128Z,2.30
2019-03-19T14:21:51.555Z,1.80
2019-03-19T14:24:24.889Z,2.20
2019-03-19T14:26:58.326Z,2.13
2019-03-19T14:29:32.835Z,2.20
2019-03-19T14:32:06.384Z,2.00
2019-03-19T14:34:39.690Z,2.37
2019-03-19T14:37:13.185Z,1.77
2019-03-19T14:39:46.581Z,2.30
2019-03-19T14:42:19.921Z,2.50
2019-03-19T14:44:53.270Z,2.20
2019-03-19T14:47:28.268Z,1.90
2019-03-19T14:50:01.902Z,1.90
2019-03-19T14:52:35.326Z,1.80
2019-03-19T14:55:09.312Z,2.50
2019-03-19T14:57:42.759Z,1.80
2019-03-19T15:00:22.944Z,2.00
2019-03-19T15:02:56.383Z,1.80
2019-03-19T15:05:29.801Z,2.40
2019-03-19T15:08:03.230Z,2.20
2019-03-19T15:10:36.591Z,2.37
2019-03-19T15:13:10.303Z,2.10
2019-03-19T15:15:43.727Z,2.17
2019-03-19T15:18:17.099Z,2.40
2019-03-19T15:20:52.952Z,2.43
2019-03-19T15:23:25.717Z,2.37
2019-03-19T15:25:59.416Z,2.27
2019-03-19T15:28:32.961Z,2.50
2019-03-19T15:31:06.441Z,2.33
2019-03-19T15:33:39.847Z,2.53
2019-03-19T15:36:13.163Z,2.47
2019-03-19T15:38:46.540Z,2.40
2019-03-19T15:41:19.956Z,1.80
2019-03-19T15:43:53.408Z,2.23
2019-03-19T15:46:26.765Z,2.07
2019-03-19T15:49:00.551Z,2.30
2019-03-19T15:51:34.086Z,2.20
2019-03-19T15:54:07.502Z,2.10
2019-03-19T15:56:40.937Z,2.30
2019-03-19T15:59:14.316Z,2.10
2019-03-19T16:01:47.737Z,2.13
2019-03-19T16:04:21.201Z,2.30
2019-03-19T16:06:54.650Z,2.27
2019-03-19T16:09:28.107Z,2.30
2019-03-19T16:12:01.560Z,2.30
2019-03-19T16:14:35.011Z,2.73
2019-03-19T16:17:08.420Z,2.43
2019-03-19T16:19:41.861Z,2.00
2019-03-19T16:22:15.233Z,2.40
2019-03-19T16:24:48.563Z,2.63
2019-03-19T16:27:22.045Z,2.60
2019-03-19T16:29:55.372Z,2.10
2019-03-19T16:32:28.945Z,3.07
2019-03-19T16:35:02.300Z,2.57
2019-03-19T16:37:35.692Z,2.70
2019-03-19T16:40:19.795Z,2.70
2019-03-19T16:42:53.164Z,2.70
2019-03-19T16:45:26.515Z,2.60
2019-03-19T16:47:59.894Z,2.60
2019-03-19T16:50:33.332Z,2.30
2019-03-19T16:53:06.856Z,3.00
2019-03-19T16:55:40.224Z,2.70
2019-03-19T16:58:13.655Z,3.00
2019-03-19T17:00:47.069Z,2.87
2019-03-19T17:03:27.770Z,3.23
2019-03-19T17:06:01.638Z,3.03
2019-03-19T17:08:35.111Z,3.43
2019-03-19T17:11:10.114Z,3.40
2019-03-19T17:13:43.519Z,3.33
2019-03-19T17:16:16.858Z,3.70
2019-03-19T17:18:50.414Z,2.97
2019-03-19T17:21:23.811Z,3.17
2019-03-19T17:23:57.269Z,3.60
2019-03-19T17:26:30.689Z,2.83
2019-03-19T17:29:04.293Z,2.93
2019-03-19T17:31:37.840Z,3.13
2019-03-19T17:34:11.287Z,3.00
2019-03-19T17:36:44.879Z,3.17
2019-03-19T17:39:18.315Z,3.20
2019-03-19T17:41:51.986Z,4.57
2019-03-19T17:44:25.359Z,4.17
2019-03-19T17:46:58.813Z,3.20
2019-03-19T17:49:32.178Z,2.40
2019-03-19T17:52:05.628Z,2.63
2019-03-19T17:54:38.944Z,2.60
2019-03-19T17:57:12.376Z,3.20
2019-03-19T17:59:45.822Z,5.20
2019-03-19T18:02:23.805Z,5.27
2019-03-19T18:04:54.422Z,3.33
2019-03-19T18:07:27.866Z,2.90
2019-03-19T18:10:01.406Z,3.97
2019-03-19T18:12:34.862Z,2.50
2019-03-19T18:15:11.394Z,1.80
2019-03-19T18:17:44.889Z,2.53
2019-03-19T18:20:18.673Z,3.17
2019-03-19T18:22:52.076Z,3.83
2019-03-19T18:25:25.561Z,2.87
2019-03-19T18:27:59.011Z,3.37
2019-03-19T18:30:35.253Z,5.40
2019-03-19T18:33:08.671Z,3.80
2019-03-19T18:35:42.191Z,3.03
2019-03-19T18:38:18.653Z,3.30
2019-03-19T18:40:52.013Z,2.80
2019-03-19T18:43:25.430Z,2.90
2019-03-19T18:45:58.900Z,4.63
2019-03-19T18:48:32.312Z,5.80
2019-03-19T18:51:05.829Z,4.43
2019-03-19T18:53:39.182Z,3.53
2019-03-19T18:56:12.643Z,5.47
2019-03-19T18:58:46.058Z,4.57
2019-03-19T19:01:19.523Z,3.80
2019-03-19T19:03:52.945Z,5.30
2019-03-19T19:06:26.336Z,18.87
2019-03-19T19:08:59.756Z,6.20
2019-03-19T19:11:33.207Z,7.90
2019-03-19T19:14:06.742Z,12.67
2019-03-19T19:16:40.216Z,9.40
2019-03-19T19:19:13.679Z,10.30
2019-03-19T19:21:47.112Z,9.60
2019-03-19T19:24:20.656Z,13.13
2019-03-19T19:26:54.190Z,22.30
2019-03-19T19:29:27.619Z,15.13
2019-03-19T19:32:01.064Z,17.93
2019-03-19T19:34:34.433Z,15.07
2019-03-19T19:37:07.868Z,14.30
2019-03-19T19:39:41.377Z,15.97
2019-03-19T19:42:14.827Z,16.10
2019-03-19T19:44:48.297Z,14.43
2019-03-19T19:47:21.739Z,8.90
2019-03-19T19:49:55.176Z,11.77
2019-03-19T19:52:29.620Z,10.33
2019-03-19T19:55:03.128Z,6.83
2019-03-19T19:57:36.553Z,5.50
2019-03-19T20:00:21.901Z,6.27
2019-03-19T20:02:55.430Z,7.57
2019-03-19T20:05:28.764Z,9.13
2019-03-19T20:08:02.170Z,8.73
2019-03-19T20:10:35.582Z,8.70
2019-03-19T20:13:09.049Z,8.50
2019-03-19T20:15:42.568Z,10.33
2019-03-19T20:18:15.971Z,6.20
2019-03-19T20:20:49.299Z,5.70
2019-03-19T20:23:22.677Z,7.20
2019-03-19T20:25:56.974Z,7.40
2019-03-19T20:28:30.436Z,8.43
2019-03-19T20:31:03.890Z,9.27
2019-03-19T20:33:37.646Z,8.90
2019-03-19T20:36:11.101Z,7.47
2019-03-19T20:38:44.468Z,6.97
2019-03-19T20:41:17.896Z,7.70
2019-03-19T20:43:51.290Z,6.87
2019-03-19T20:46:24.642Z,6.20
2019-03-19T20:48:58.077Z,6.23
2019-03-19T20:51:31.592Z,6.07
2019-03-19T20:54:05.218Z,6.10
2019-03-19T20:56:38.652Z,5.73
2019-03-19T20:59:12.200Z,6.13
2019-03-19T21:01:45.759Z,6.37
2019-03-19T21:04:19.221Z,6.50
2019-03-19T21:06:52.713Z,6.47
2019-03-19T21:09:26.130Z,7.23
2019-03-19T21:11:59.697Z,7.33
2019-03-19T21:14:33.167Z,7.87
2019-03-19T21:17:06.789Z,6.87
2019-03-19T21:19:40.222Z,6.03
2019-03-19T21:22:13.734Z,5.87
2019-03-19T21:24:47.251Z,5.50
2019-03-19T21:27:20.769Z,5.40
2019-03-19T21:29:54.253Z,4.87
2019-03-19T21:32:27.771Z,4.87
2019-03-19T21:35:01.309Z,4.90
2019-03-19T21:37:34.669Z,5.00
2019-03-19T21:40:15.045Z,4.83
2019-03-19T21:42:48.577Z,4.57
2019-03-19T21:45:22.632Z,4.50
2019-03-19T21:47:56.085Z,4.50
2019-03-19T21:50:29.492Z,4.57
2019-03-19T21:53:03.078Z,4.30
2019-03-19T21:55:36.627Z,4.50
2019-03-19T21:58:09.998Z,4.47
2019-03-19T22:00:43.421Z,4.20
2019-03-19T22:03:16.918Z,3.73
2019-03-19T22:05:50.340Z,3.93
2019-03-19T22:08:23.865Z,4.00
2019-03-19T22:10:57.285Z,3.53
2019-03-19T22:13:30.779Z,3.43
2019-03-19T22:16:04.157Z,3.47
2019-03-19T22:18:37.615Z,3.77
2019-03-19T22:21:11.086Z,3.30
2019-03-19T22:23:44.520Z,3.90
2019-03-19T22:26:17.884Z,3.77
2019-03-19T22:28:51.251Z,3.83
2019-03-19T22:31:24.709Z,3.90
2019-03-19T22:33:58.124Z,3.47
2019-03-19T22:36:31.571Z,3.70
2019-03-19T22:39:07.296Z,3.67
2019-03-19T22:41:40.632Z,4.00
2019-03-19T22:44:14.040Z,3.30
2019-03-19T22:46:47.478Z,3.57
2019-03-19T22:49:20.772Z,3.80
2019-03-19T22:51:54.189Z,3.27
2019-03-19T22:54:27.649Z,3.27
2019-03-19T22:57:01.204Z,3.50
2019-03-19T22:59:34.580Z,3.57
2019-03-19T23:02:08.040Z,3.90
2019-03-19T23:04:41.482Z,3.27
2019-03-19T23:07:14.929Z,3.90
2019-03-19T23:09:48.348Z,3.50
2019-03-19T23:12:21.712Z,3.63
2019-03-19T23:14:55.125Z,3.53
2019-03-19T23:17:28.626Z,3.87
2019-03-19T23:20:02.173Z,3.67
2019-03-19T23:22:35.630Z,3.53
2019-03-19T23:25:09.431Z,3.27
2019-03-19T23:27:42.992Z,2.90
2019-03-19T23:30:21.474Z,3.40
2019-03-19T23:32:55.010Z,3.30
2019-03-19T23:35:28.380Z,3.50
2019-03-19T23:38:01.846Z,3.67
2019-03-19T23:40:35.266Z,3.07
2019-03-19T23:43:08.619Z,3.47
2019-03-19T23:45:42.048Z,3.40
2019-03-19T23:48:15.562Z,3.40
2019-03-19T23:50:49.042Z,3.17
2019-03-19T23:53:22.483Z,3.40
2019-03-19T23:55:55.895Z,3.20
2019-03-19T23:58:29.254Z,3.50
